createdAt,value
2023-02-06T00:02:36.456Z,5.35
2023-02-06T00:06:39.801Z,5.13
2023-02-06T00:10:44.275Z,4.75
2023-02-06T00:14:47.118Z,6.00
2023-02-06T00:18:50.564Z,5.25
2023-02-06T00:22:53.507Z,5.45
2023-02-06T00:26:58.214Z,5.65
2023-02-06T00:31:01.223Z,5.60
2023-02-06T00:35:04.288Z,6.22
2023-02-06T00:39:07.210Z,6.85
2023-02-06T00:43:12.377Z,6.97
2023-02-06T00:47:15.268Z,6.70
2023-02-06T00:51:18.196Z,7.65
2023-02-06T00:55:57.579Z,7.75
2023-02-06T01:00:01.930Z,7.55
2023-02-06T01:04:06.063Z,7.90
2023-02-06T01:08:08.960Z,8.00
2023-02-06T01:12:12.103Z,7.95
2023-02-06T01:16:18.562Z,8.07
2023-02-06T01:20:22.980Z,7.85
2023-02-06T01:24:26.035Z,8.02
2023-02-06T01:28:28.918Z,8.20
2023-02-06T01:32:33.552Z,7.68
2023-02-06T01:36:36.794Z,8.25
2023-02-06T01:40:39.902Z,8.57
2023-02-06T01:44:43.509Z,9.25
2023-02-06T01:48:51.269Z,9.25
2023-02-06T01:52:54.386Z,8.45
2023-02-06T01:57:02.363Z,9.50
2023-02-06T02:01:07.247Z,8.23
2023-02-06T02:05:13.476Z,9.70
2023-02-06T02:09:18.444Z,10.02
2023-02-06T02:13:21.376Z,9.82
2023-02-06T02:17:37.449Z,9.85
2023-02-06T02:22:15.640Z,10.52
2023-02-06T02:26:45.309Z,9.85
2023-02-06T02:31:05.721Z,11.38
2023-02-06T02:35:19.818Z,11.65
2023-02-06T02:39:31.014Z,11.05
2023-02-06T02:43:43.287Z,11.55
2023-02-06T02:47:51.523Z,11.15
2023-02-06T02:51:59.707Z,12.13
2023-02-06T02:56:09.634Z,11.50
2023-02-06T03:00:18.089Z,13.32
2023-02-06T03:04:26.579Z,13.55
2023-02-06T03:08:39.182Z,14.57
2023-02-06T03:12:46.874Z,14.00
2023-02-06T03:16:55.727Z,14.85
2023-02-06T03:21:01.122Z,13.52
2023-02-06T03:25:09.632Z,14.35
2023-02-06T03:29:15.788Z,14.07
2023-02-06T03:33:23.326Z,13.48
2023-02-06T03:37:27.541Z,13.63
2023-02-06T03:41:36.177Z,14.07
2023-02-06T03:45:43.092Z,14.50
2023-02-06T03:49:48.978Z,14.55
2023-02-06T03:53:54.353Z,14.02
2023-02-06T03:58:04.442Z,14.60
2023-02-06T04:02:08.187Z,14.45
2023-02-06T04:06:11.312Z,15.63
2023-02-06T04:10:14.528Z,14.95
2023-02-06T04:14:19.112Z,14.43
2023-02-06T04:18:22.598Z,13.48
2023-02-06T04:22:25.736Z,13.95
2023-02-06T04:26:28.818Z,13.25
2023-02-06T04:30:33.406Z,14.20
2023-02-06T04:34:37.414Z,13.63
2023-02-06T04:38:40.832Z,13.15
2023-02-06T04:42:43.952Z,13.13
2023-02-06T04:47:02.998Z,14.32
2023-02-06T04:51:13.829Z,14.52
2023-02-06T04:55:20.207Z,14.40
2023-02-06T04:59:23.264Z,14.63
2023-02-06T05:03:29.716Z,14.57
2023-02-06T05:07:32.749Z,14.38
2023-02-06T05:11:35.855Z,13.70
2023-02-06T05:15:53.088Z,14.38
2023-02-06T05:20:00.883Z,14.02
2023-02-06T05:24:07.208Z,15.18
2023-02-06T05:28:42.991Z,14.65
2023-02-06T05:32:52.020Z,13.88
2023-02-06T05:36:56.462Z,14.15
2023-02-06T05:40:59.620Z,13.30
2023-02-06T05:45:03.928Z,13.77
2023-02-06T05:49:23.368Z,13.52
2023-02-06T05:53:27.988Z,13.25
2023-02-06T05:57:38.586Z,13.48
2023-02-06T06:01:41.789Z,13.90
2023-02-06T06:05:44.688Z,14.00
2023-02-06T06:09:49.236Z,12.88
2023-02-06T06:13:53.150Z,12.65
2023-02-06T06:17:56.209Z,13.02
2023-02-06T06:21:59.259Z,13.75
2023-02-06T06:26:03.663Z,12.30
2023-02-06T06:30:19.061Z,13.32
2023-02-06T06:34:22.151Z,13.52
2023-02-06T06:38:25.194Z,13.50
2023-02-06T06:42:29.528Z,13.35
2023-02-06T06:46:32.637Z,13.93
2023-02-06T06:51:04.762Z,12.90
2023-02-06T06:55:08.586Z,13.75
2023-02-06T06:59:12.958Z,14.15
2023-02-06T07:03:16.012Z,14.20
2023-02-06T07:07:22.631Z,14.10
2023-02-06T07:11:28.728Z,15.50
2023-02-06T07:15:33.025Z,14.85
2023-02-06T07:19:36.024Z,15.50
2023-02-06T07:23:39.209Z,16.13
2023-02-06T07:27:42.132Z,15.27
2023-02-06T07:31:51.422Z,15.10
2023-02-06T07:35:58.036Z,15.52
2023-02-06T07:40:01.380Z,14.02
2023-02-06T07:44:04.539Z,15.05
2023-02-06T07:48:09.144Z,14.73
2023-02-06T07:52:13.314Z,14.20
2023-02-06T07:56:25.212Z,13.65
2023-02-06T08:00:33.406Z,13.75
2023-02-06T08:04:40.070Z,13.63
2023-02-06T08:08:43.502Z,14.57
2023-02-06T08:12:51.021Z,13.48
2023-02-06T08:16:54.084Z,13.70
2023-02-06T08:25:56.668Z,12.93
2023-02-06T08:30:01.064Z,13.40
2023-02-06T08:34:12.329Z,13.35
2023-02-06T08:38:16.498Z,13.15
2023-02-06T08:42:19.257Z,12.93
2023-02-06T08:46:24.209Z,13.75
2023-02-06T08:50:27.032Z,13.38
2023-02-06T08:54:33.197Z,13.13
2023-02-06T08:58:39.208Z,14.25
2023-02-06T09:02:41.976Z,13.38
2023-02-06T09:06:46.360Z,12.25
2023-02-06T09:10:50.658Z,12.48
2023-02-06T09:14:53.676Z,13.63
2023-02-06T09:19:01.210Z,14.43
2023-02-06T09:23:03.992Z,13.15
2023-02-06T09:27:08.064Z,12.52
2023-02-06T09:31:11.424Z,13.77
2023-02-06T09:35:14.309Z,14.80
2023-02-06T09:39:17.186Z,14.20
2023-02-06T09:43:22.101Z,13.70
2023-02-06T09:47:27.745Z,14.65
2023-02-06T09:51:42.231Z,14.85
2023-02-06T09:55:48.585Z,14.73
2023-02-06T09:59:58.462Z,15.48
2023-02-06T10:04:21.452Z,15.05
2023-02-06T10:08:34.238Z,15.02
2023-02-06T10:12:41.952Z,14.95
2023-02-06T10:16:55.598Z,15.35
2023-02-06T10:21:02.819Z,14.07
2023-02-06T10:25:19.740Z,15.35
2023-02-06T10:29:27.868Z,15.05
2023-02-06T10:33:39.652Z,16.25
2023-02-06T10:38:07.292Z,15.75
2023-02-06T10:42:17.965Z,15.73
2023-02-06T10:46:39.637Z,16.27
2023-02-06T10:50:48.961Z,16.35
2023-02-06T10:54:56.006Z,16.75
2023-02-06T10:59:02.124Z,16.48
2023-02-06T11:03:08.515Z,15.77
2023-02-06T11:07:22.574Z,15.43
2023-02-06T11:11:29.607Z,15.63
2023-02-06T11:15:37.391Z,17.27
2023-02-06T11:19:44.321Z,15.23
2023-02-06T11:24:08.368Z,13.70
2023-02-06T11:28:15.605Z,14.10
2023-02-06T11:32:35.879Z,15.20
2023-02-06T11:36:39.868Z,14.80
2023-02-06T11:40:45.148Z,14.15
2023-02-06T11:44:48.524Z,13.98
2023-02-06T11:49:03.244Z,13.80
2023-02-06T11:53:10.928Z,12.95
2023-02-06T11:57:23.755Z,12.88
2023-02-06T12:01:28.676Z,13.73
2023-02-06T12:05:35.952Z,13.05
2023-02-06T12:09:40.476Z,12.60
2023-02-06T12:13:53.890Z,11.73
2023-02-06T12:18:04.709Z,12.32
2023-02-06T12:22:16.946Z,11.93
2023-02-06T12:26:21.871Z,13.07
2023-02-06T12:30:35.163Z,13.18
2023-02-06T12:34:50.154Z,12.95
2023-02-06T12:38:58.411Z,13.82
2023-02-06T12:43:03.913Z,13.80
2023-02-06T12:47:18.296Z,14.63
2023-02-06T12:51:26.643Z,15.32
2023-02-06T12:55:32.735Z,15.57
2023-02-06T12:59:58.450Z,16.70
2023-02-06T13:04:05.296Z,15.80
2023-02-06T13:08:10.795Z,16.40
2023-02-06T13:12:16.286Z,16.77
2023-02-06T13:16:19.371Z,16.65
2023-02-06T13:20:25.562Z,17.73
2023-02-06T13:24:28.426Z,17.63
2023-02-06T13:29:07.999Z,17.30
2023-02-06T13:33:15.539Z,14.90
2023-02-06T13:37:33.986Z,15.05
2023-02-06T13:41:38.381Z,15.57
2023-02-06T13:45:46.494Z,14.98
2023-02-06T13:50:33.636Z,13.77
2023-02-06T13:55:07.279Z,13.77
2023-02-06T13:59:17.175Z,14.68
2023-02-06T14:03:24.972Z,13.93
2023-02-06T14:07:55.373Z,14.38
2023-02-06T14:12:26.706Z,14.32
2023-02-06T14:16:42.338Z,14.50
2023-02-06T14:20:53.697Z,14.52
2023-02-06T14:25:09.536Z,13.82
2023-02-06T14:29:26.401Z,15.13
2023-02-06T14:33:50.463Z,16.02
2023-02-06T14:38:17.844Z,16.60
2023-02-06T14:42:25.246Z,14.63
2023-02-06T14:46:30.217Z,14.13
2023-02-06T14:50:36.479Z,15.15
2023-02-06T14:54:39.640Z,13.93
2023-02-06T14:58:46.101Z,15.10
2023-02-06T15:03:04.857Z,14.20
2023-02-06T15:07:07.588Z,14.32
2023-02-06T15:11:32.197Z,13.18
2023-02-06T15:15:35.985Z,14.50
2023-02-06T15:19:40.296Z,13.57
2023-02-06T15:23:57.339Z,13.25
2023-02-06T15:28:03.955Z,14.05
2023-02-06T15:32:09.325Z,15.20
2023-02-06T15:36:23.466Z,14.85
2023-02-06T15:40:30.736Z,14.13
2023-02-06T15:44:37.061Z,15.95
2023-02-06T15:48:43.716Z,15.43
2023-02-06T15:52:48.435Z,16.35
2023-02-06T15:56:54.627Z,21.25
2023-02-06T16:01:00.695Z,17.05
2023-02-06T16:05:05.616Z,9.05
2023-02-06T16:09:23.374Z,4.78
2023-02-06T16:13:28.950Z,5.35
2023-02-06T16:17:33.989Z,4.72
2023-02-06T16:21:42.053Z,5.13
2023-02-06T16:25:47.905Z,5.75
2023-02-06T16:29:54.361Z,5.18
2023-02-06T16:34:03.000Z,5.40
2023-02-06T16:38:06.921Z,5.22
2023-02-06T16:42:15.476Z,5.68
2023-02-06T16:46:18.271Z,5.10
2023-02-06T16:50:22.177Z,5.93
2023-02-06T16:54:28.648Z,6.38
2023-02-06T16:58:34.899Z,6.20
2023-02-06T17:02:38.432Z,7.13
2023-02-06T17:06:41.237Z,7.50
2023-02-06T17:10:46.652Z,8.65
2023-02-06T17:14:50.760Z,7.72
2023-02-06T17:18:54.028Z,6.80
2023-02-06T17:22:56.725Z,5.85
2023-02-06T17:27:01.395Z,6.85
2023-02-06T17:31:05.867Z,7.90
2023-02-06T17:35:09.212Z,8.18
2023-02-06T17:39:13.327Z,7.97
2023-02-06T17:43:16.185Z,9.75
2023-02-06T17:47:20.545Z,10.30
2023-02-06T17:51:23.508Z,10.30
2023-02-06T17:55:27.674Z,10.60
2023-02-06T17:59:31.248Z,13.05
2023-02-06T18:03:35.397Z,11.88
2023-02-06T18:07:39.583Z,11.73
2023-02-06T18:11:42.492Z,11.63
2023-02-06T18:15:50.115Z,10.25
2023-02-06T18:19:54.371Z,12.18
2023-02-06T18:23:58.260Z,11.82
2023-02-06T18:28:01.261Z,11.80
2023-02-06T18:32:05.203Z,12.25
2023-02-06T18:36:09.952Z,13.75
2023-02-06T18:40:13.306Z,14.98
2023-02-06T18:44:16.144Z,11.52
2023-02-06T18:48:20.035Z,11.10
2023-02-06T18:52:24.429Z,10.57
2023-02-06T18:56:30.958Z,10.75
2023-02-06T19:00:37.737Z,10.40
2023-02-06T19:04:41.249Z,10.38
2023-02-06T19:08:46.731Z,10.35
2023-02-06T19:12:49.682Z,10.13
2023-02-06T19:16:54.362Z,10.52
2023-02-06T19:20:57.125Z,10.07
2023-02-06T19:25:01.240Z,11.07
2023-02-06T19:29:04.096Z,11.02
2023-02-06T19:33:06.840Z,10.45
2023-02-06T19:37:11.149Z,9.95
2023-02-06T19:41:18.392Z,10.10
2023-02-06T19:45:21.460Z,11.40
2023-02-06T19:49:24.304Z,11.27
2023-02-06T19:53:27.428Z,11.57
2023-02-06T19:57:32.514Z,10.40
2023-02-06T20:01:35.781Z,10.52
2023-02-06T20:05:39.487Z,11.00
2023-02-06T20:09:43.676Z,10.40
2023-02-06T20:13:48.731Z,10.52
2023-02-06T20:17:52.244Z,11.45
2023-02-06T20:21:56.987Z,11.63
2023-02-06T20:26:02.810Z,12.40
2023-02-06T20:30:08.357Z,12.43
2023-02-06T20:34:11.167Z,13.07
2023-02-06T20:38:13.987Z,12.20
2023-02-06T20:42:17.110Z,11.93
2023-02-06T20:46:21.619Z,10.98
2023-02-06T20:50:24.473Z,10.48
2023-02-06T20:54:27.256Z,10.10
2023-02-06T20:58:30.681Z,9.82
2023-02-06T21:02:34.858Z,9.52
2023-02-06T21:06:39.092Z,10.98
2023-02-06T21:10:42.330Z,10.20
2023-02-06T21:14:45.247Z,10.73
2023-02-06T21:18:56.927Z,11.82
2023-02-06T21:23:00.141Z,12.90
2023-02-06T21:27:02.969Z,13.68
2023-02-06T21:31:08.107Z,14.38
2023-02-06T21:35:12.263Z,12.73
2023-02-06T21:39:17.283Z,13.38
2023-02-06T21:43:38.529Z,12.63
2023-02-06T21:47:42.396Z,13.20
2023-02-06T21:51:46.679Z,12.55
2023-02-06T21:55:50.624Z,13.15
2023-02-06T21:59:54.348Z,13.52
2023-02-06T22:04:04.083Z,14.55
2023-02-06T22:08:08.168Z,12.85
2023-02-06T22:12:10.905Z,11.00
2023-02-06T22:16:15.371Z,11.57
2023-02-06T22:20:18.233Z,12.40
2023-02-06T22:24:26.285Z,11.00
2023-02-06T22:28:29.367Z,10.90
2023-02-06T22:32:32.123Z,11.00
2023-02-06T22:36:34.953Z,10.77
2023-02-06T22:40:38.994Z,13.25
2023-02-06T22:44:41.699Z,14.18
2023-02-06T22:48:45.241Z,13.45
2023-02-06T22:53:05.531Z,14.77
2023-02-06T22:57:09.604Z,13.02
2023-02-06T23:01:12.858Z,12.75
2023-02-06T23:05:15.746Z,14.48
2023-02-06T23:09:21.034Z,12.73
2023-02-06T23:13:26.787Z,12.00
2023-02-06T23:17:29.586Z,12.32
2023-02-06T23:21:34.160Z,11.95
2023-02-06T23:25:42.866Z,12.98
2023-02-06T23:29:46.958Z,13.18
2023-02-06T23:33:49.688Z,11.77
2023-02-06T23:37:52.641Z,11.77
2023-02-06T23:41:55.355Z,10.90
2023-02-06T23:45:59.671Z,11.95
2023-02-06T23:50:02.482Z,11.85
2023-02-06T23:54:06.426Z,11.77
2023-02-06T23:58:09.255Z,11.55
